Time;durP1;ratioP1;P1;durP2;ratioP2;P2;SDS_P1;SDS_P2;PMS_P1;PMS_P2;Temp;Humidity;BMP_temperature;BMP_pressure;BME280_temperature;BME280_humidity;BME280_pressure;Samples;Min_cycle;Max_cycle;Signal;HPM_P1;HPM_P2
2021/06/26 00:02:00;;;;;;;;;;;;;;;15.88;75.73;101873.19;5135260;27;19947;-40
2021/06/26 00:04:25;;;;;;;;;;;;;;;15.87;75.80;101881.63;5134982;27;19908;-40
2021/06/26 00:06:50;;;;;;;;;;;;;;;15.87;76.18;101881.63;5135559;27;19915;-40
2021/06/26 00:09:15;;;;;;;;;;;;;;;15.86;75.63;101880.81;5135696;27;20418;-40
2021/06/26 00:11:41;;;;;;;;;;;;;;;15.86;75.74;101877.22;5135758;27;20006;-40
2021/06/26 00:14:06;;;;;;;;;;;;;;;15.87;75.81;101878.91;5135086;27;19958;-40
2021/06/26 00:16:31;;;;;;;;;;;;;;;15.86;75.95;101880.81;5135262;27;20002;-40
2021/06/26 00:18:57;;;;;;;;;;;;;;;15.85;75.78;101881.03;5135136;27;19907;-40
2021/06/26 00:21:22;;;;;;;;;;;;;;;15.84;75.94;101871.19;5134858;27;19907;-40
2021/06/26 00:23:47;;;;;;;;;;;;;;;15.84;76.07;101872.00;5135110;27;19957;-40
2021/06/26 00:26:12;;;;;;;;;;;;;;;15.84;76.42;101869.28;5134825;27;19915;-40
2021/06/26 00:28:38;;;;;;;;;;;;;;;15.82;77.53;101871.44;5134641;28;19907;-40
2021/06/26 00:31:03;;;;;;;;;;;;;;;15.78;76.96;101872.16;5134609;28;19914;-40
2021/06/26 00:33:28;;;;;;;;;;;;;;;15.78;76.24;101880.34;5135783;28;19907;-40
2021/06/26 00:35:53;;;;;;;;;;;;;;;15.80;76.44;101875.47;5135513;28;20078;-40
2021/06/26 00:38:19;;;;;;;;;;;;;;;15.79;76.98;101877.38;5135112;28;19911;-40
2021/06/26 00:40:44;;;;;;;;;;;;;;;15.78;76.93;101874.88;5135467;28;20307;-40
2021/06/26 00:43:09;;;;;;;;;;;;;;;15.78;76.79;101880.34;5134532;28;19907;-40
2021/06/26 00:45:34;;;;;;;;;;;;;;;15.80;76.68;101872.72;5137571;27;20002;-40
2021/06/26 00:48:00;;;;;;;;;;;;;;;15.80;77.18;101868.09;5138959;27;19943;-40
2021/06/26 00:50:27;;;;;;;;;;;;;;;15.80;77.29;101870.00;5139891;27;19964;-40
2021/06/26 00:52:53;;;;;;;;;;;;;;;15.78;76.87;101867.53;5139745;27;20288;-40
2021/06/26 00:55:18;;;;;;;;;;;;;;;15.79;77.39;101877.38;5139454;27;19907;-40
2021/06/26 00:57:47;;;;;;;;;;;;;;;15.79;77.18;101884.72;5138872;27;19918;-40
2021/06/26 01:00:13;;;;;;;;;;;;;;;15.75;77.41;101881.63;5139415;27;19913;-40
2021/06/26 01:02:38;;;;;;;;;;;;;;;15.74;77.45;101881.88;5139312;27;20307;-40
2021/06/26 01:05:05;;;;;;;;;;;;;;;15.76;77.67;101882.47;5139290;27;19961;-40
2021/06/26 01:07:30;;;;;;;;;;;;;;;15.78;77.45;101881.16;5138818;27;20351;-40
2021/06/26 01:09:55;;;;;;;;;;;;;;;15.81;77.15;101883.41;5138762;27;19914;-40
2021/06/26 01:12:20;;;;;;;;;;;;;;;15.81;77.40;101877.97;5138576;27;19907;-40
2021/06/26 01:14:47;;;;;;;;;;;;;;;15.82;76.84;101881.53;5139350;27;19907;-40
2021/06/26 01:17:12;;;;;;;;;;;;;;;15.82;77.13;101873.34;5138168;27;19959;-40
2021/06/26 01:19:38;;;;;;;;;;;;;;;15.82;78.41;101879.63;5138707;27;19908;-40
2021/06/26 01:22:06;;;;;;;;;;;;;;;15.82;77.55;101881.53;5138861;27;20071;-40
2021/06/26 01:24:31;;;;;;;;;;;;;;;15.83;77.28;101881.28;5138319;27;20382;-40
2021/06/26 01:26:57;;;;;;;;;;;;;;;15.83;77.04;101877.72;5138308;27;19907;-40
2021/06/26 01:29:23;;;;;;;;;;;;;;;15.82;77.25;101876.06;5138157;27;19914;-40
2021/06/26 01:31:48;;;;;;;;;;;;;;;15.80;76.94;101880.91;5138148;27;20312;-40
2021/06/26 01:34:13;;;;;;;;;;;;;;;15.78;76.89;101888.53;5137817;27;20429;-40
2021/06/26 01:36:38;;;;;;;;;;;;;;;15.74;78.61;101887.34;5138376;27;19907;-40
2021/06/26 01:39:04;;;;;;;;;;;;;;;15.72;77.79;101889.50;5137699;27;20371;-40
2021/06/26 01:41:31;;;;;;;;;;;;;;;15.73;77.44;101880.22;5138273;27;20319;-40
2021/06/26 01:43:56;;;;;;;;;;;;;;;15.72;77.52;101878.59;5137872;27;19908;-41
2021/06/26 01:46:22;;;;;;;;;;;;;;;15.70;77.59;101871.44;5138501;27;19968;-40
2021/06/26 01:48:47;;;;;;;;;;;;;;;15.70;77.52;101866.00;5137778;27;20263;-40
2021/06/26 01:51:13;;;;;;;;;;;;;;;15.72;77.52;101873.13;5138147;27;19918;-40
2021/06/26 01:53:38;;;;;;;;;;;;;;;15.71;77.56;101875.00;5137750;27;20013;-39
2021/06/26 01:56:03;;;;;;;;;;;;;;;15.69;77.43;101875.25;5137772;27;19929;-39
2021/06/26 01:58:29;;;;;;;;;;;;;;;15.70;77.51;101876.06;5137457;27;20329;-39
2021/06/26 02:00:54;;;;;;;;;;;;;;;15.71;77.30;101880.44;5138445;27;20285;-39
2021/06/26 02:03:19;;;;;;;;;;;;;;;15.70;77.38;101876.06;5137851;27;19930;-40
2021/06/26 02:05:44;;;;;;;;;;;;;;;15.72;77.36;101884.03;5138133;27;19911;-41
2021/06/26 02:08:09;;;;;;;;;;;;;;;15.72;77.38;101886.75;5137686;27;19908;-40
2021/06/26 02:10:35;;;;;;;;;;;;;;;15.69;77.45;101883.44;5137665;27;19908;-39
2021/06/26 02:13:00;;;;;;;;;;;;;;;15.69;77.29;101880.69;5137656;27;19918;-40
2021/06/26 02:15:26;;;;;;;;;;;;;;;15.70;77.59;101884.25;5137359;27;19915;-39
2021/06/26 02:17:51;;;;;;;;;;;;;;;15.70;77.51;101886.97;5137222;27;19951;-39
2021/06/26 02:20:16;;;;;;;;;;;;;;;15.70;77.52;101887.81;5137241;27;19907;-40
2021/06/26 02:22:42;;;;;;;;;;;;;;;15.73;77.32;101885.69;5137151;27;19907;-40
2021/06/26 02:25:08;;;;;;;;;;;;;;;15.74;77.64;101890.06;5137223;27;19988;-40
2021/06/26 02:27:33;;;;;;;;;;;;;;;15.67;81.02;101899.22;5136929;27;19943;-43
2021/06/26 02:29:59;;;;;;;;;;;;;;;15.58;79.84;101900.59;5137310;27;19913;-39
2021/06/26 02:32:24;;;;;;;;;;;;;;;15.56;79.07;101905.44;5137797;27;19915;-40
2021/06/26 02:34:52;;;;;;;;;;;;;;;15.57;79.01;101898.13;5137546;27;19914;-39
2021/06/26 02:37:17;;;;;;;;;;;;;;;15.60;78.59;101893.00;5137421;27;19907;-39
2021/06/26 02:39:43;;;;;;;;;;;;;;;15.61;79.61;101896.56;5137448;27;19911;-39
2021/06/26 02:42:08;;;;;;;;;;;;;;;15.57;79.20;101892.69;5136811;27;20377;-40
2021/06/26 02:44:33;;;;;;;;;;;;;;;15.54;80.04;101895.88;5137336;27;20357;-40
2021/06/26 02:46:58;;;;;;;;;;;;;;;15.53;79.42;101892.31;5136965;27;19908;-39
2021/06/26 02:49:23;;;;;;;;;;;;;;;15.51;80.49;101894.44;5136587;27;19911;-39
2021/06/26 02:51:49;;;;;;;;;;;;;;;15.48;79.79;101892.22;5137984;27;19911;-40
2021/06/26 02:54:14;;;;;;;;;;;;;;;15.48;79.96;101892.22;5136540;27;20269;-39
2021/06/26 02:56:40;;;;;;;;;;;;;;;15.49;80.64;101888.41;5136861;27;19907;-39
2021/06/26 02:59:05;;;;;;;;;;;;;;;15.49;79.69;101880.22;5136997;27;19912;-40
2021/06/26 03:01:30;;;;;;;;;;;;;;;15.49;79.60;101882.94;5136702;27;19908;-39
2021/06/26 03:03:55;;;;;;;;;;;;;;;15.48;80.73;101891.38;5136000;27;19907;-39
2021/06/26 03:06:20;;;;;;;;;;;;;;;15.40;83.72;101887.09;5136630;27;19951;-39
2021/06/26 03:08:46;;;;;;;;;;;;;;;15.34;82.28;101898.97;5135160;27;19914;-39
2021/06/26 03:11:11;;;;;;;;;;;;;;;15.35;80.79;101893.25;5136148;27;19907;-40
2021/06/26 03:13:36;;;;;;;;;;;;;;;15.39;80.57;101894.47;5136150;27;20274;-39
2021/06/26 03:16:01;;;;;;;;;;;;;;;15.43;80.46;101892.09;5136181;27;19914;-40
2021/06/26 03:18:27;;;;;;;;;;;;;;;15.45;81.58;101889.94;5135758;27;19907;-39
2021/06/26 03:20:52;;;;;;;;;;;;;;;15.43;81.39;101886.63;5136325;27;19914;-39
2021/06/26 03:23:17;;;;;;;;;;;;;;;15.43;80.52;101881.19;5135975;27;19997;-39
2021/06/26 03:25:42;;;;;;;;;;;;;;;15.48;80.67;101885.94;5136203;27;19911;-40
2021/06/26 03:28:08;;;;;;;;;;;;;;;15.49;80.16;101877.50;5135861;27;19914;-39
2021/06/26 03:30:33;;;;;;;;;;;;;;;15.52;79.66;101885.22;5135779;27;19958;-39
2021/06/26 03:32:58;;;;;;;;;;;;;;;15.53;81.64;101889.59;5136372;27;19907;-39
2021/06/26 03:35:23;;;;;;;;;;;;;;;15.50;82.57;101881.88;5136091;27;19926;-39
2021/06/26 03:37:49;;;;;;;;;;;;;;;15.41;83.35;101888.75;5135709;27;20391;-39
2021/06/26 03:40:14;;;;;;;;;;;;;;;15.34;82.93;101885.34;5135661;27;19956;-39
2021/06/26 03:42:39;;;;;;;;;;;;;;;15.31;84.48;101891.25;5135604;27;20347;-39
2021/06/26 03:45:06;;;;;;;;;;;;;;;15.29;82.84;101893.41;5136396;27;19918;-39
2021/06/26 03:47:31;;;;;;;;;;;;;;;15.33;82.19;101891.84;5135554;27;19914;-39
2021/06/26 03:49:56;;;;;;;;;;;;;;;15.38;81.20;101897.44;5135045;27;19911;-40
2021/06/26 03:52:22;;;;;;;;;;;;;;;15.44;81.14;101896.47;5135187;27;19907;-39
2021/06/26 03:54:47;;;;;;;;;;;;;;;15.46;80.88;101897.88;5135184;27;19943;-39
2021/06/26 03:57:12;;;;;;;;;;;;;;;15.51;80.65;101899.88;5135155;27;19907;-39
2021/06/26 03:59:37;;;;;;;;;;;;;;;15.53;80.49;101899.66;5135440;27;19907;-39
2021/06/26 04:02:06;;;;;;;;;;;;;;;15.56;80.41;101902.72;5135288;27;19915;-39
2021/06/26 04:04:32;;;;;;;;;;;;;;;15.59;80.60;101902.25;5136212;27;19994;-39
2021/06/26 04:06:57;;;;;;;;;;;;;;;15.59;80.57;101896.81;5135564;27;20373;-39
2021/06/26 04:09:23;;;;;;;;;;;;;;;15.57;81.06;101901.69;5135143;27;19961;-39
2021/06/26 04:11:48;;;;;;;;;;;;;;;15.57;80.58;101895.41;5135534;27;20002;-39
2021/06/26 04:14:13;;;;;;;;;;;;;;;15.58;80.36;101891.59;5134876;27;19922;-39
2021/06/26 04:16:38;;;;;;;;;;;;;;;15.60;81.49;101903.09;5134843;27;19907;-39
2021/06/26 04:19:04;;;;;;;;;;;;;;;15.58;80.61;101903.34;5135044;27;19926;-39
2021/06/26 04:21:29;;;;;;;;;;;;;;;15.60;80.01;101912.09;5135330;27;19914;-39
2021/06/26 04:23:54;;;;;;;;;;;;;;;15.63;80.81;101908.94;5135027;27;20366;-39
2021/06/26 04:26:19;;;;;;;;;;;;;;;15.64;80.18;101907.84;5135098;28;20370;-39
2021/06/26 04:28:44;;;;;;;;;;;;;;;15.65;81.52;101904.06;5135277;28;20343;-39
2021/06/26 04:31:10;;;;;;;;;;;;;;;15.64;80.84;101907.03;5134637;28;19907;-39
2021/06/26 04:33:35;;;;;;;;;;;;;;;15.63;81.92;101908.94;5134655;28;19907;-39
2021/06/26 04:36:00;;;;;;;;;;;;;;;15.62;81.40;101901.78;5135581;28;19956;-39
2021/06/26 04:38:25;;;;;;;;;;;;;;;15.64;81.06;101896.13;5134886;28;19952;-40
2021/06/26 04:40:52;;;;;;;;;;;;;;;15.65;80.72;101900.50;5134108;28;19908;-39
2021/06/26 04:43:17;;;;;;;;;;;;;;;15.67;82.44;101906.56;5134644;27;20347;-40
2021/06/26 04:45:44;;;;;;;;;;;;;;;15.64;80.73;101905.13;5134872;27;19964;-39
2021/06/26 04:48:09;;;;;;;;;;;;;;;15.68;80.60;101911.78;5135121;27;19907;-39
2021/06/26 04:50:35;;;;;;;;;;;;;;;15.70;80.54;101906.91;5134880;27;20296;-39
2021/06/26 04:53:00;;;;;;;;;;;;;;;15.70;82.07;101903.34;5134784;27;19915;-39
2021/06/26 04:55:26;;;;;;;;;;;;;;;15.72;80.75;101900.41;5134828;28;19907;-39
2021/06/26 04:57:51;;;;;;;;;;;;;;;15.70;80.41;101895.97;5134762;27;19907;-39
2021/06/26 05:00:16;;;;;;;;;;;;;;;15.70;83.29;101898.72;5133878;28;19921;-39
2021/06/26 05:02:42;;;;;;;;;;;;;;;15.69;81.23;101899.78;5134704;27;19914;-39
2021/06/26 05:05:07;;;;;;;;;;;;;;;15.68;82.45;101898.13;5134973;28;19968;-39
2021/06/26 05:07:32;;;;;;;;;;;;;;;15.74;81.57;101893.63;5134594;27;19976;-39
2021/06/26 05:09:57;;;;;;;;;;;;;;;15.77;82.20;101892.31;5134252;28;19911;-39
2021/06/26 05:12:23;;;;;;;;;;;;;;;15.77;82.38;101895.88;5134298;28;19907;-39
2021/06/26 05:14:48;;;;;;;;;;;;;;;15.79;81.43;101888.28;5134518;28;19914;-39
2021/06/26 05:17:13;;;;;;;;;;;;;;;15.87;81.87;101903.44;5134533;28;19908;-39
2021/06/26 05:19:38;;;;;;;;;;;;;;;15.90;81.51;101903.78;5134208;28;20343;-39
2021/06/26 05:22:04;;;;;;;;;;;;;;;15.96;81.57;101900.09;5135059;28;19937;-40
2021/06/26 05:24:29;;;;;;;;;;;;;;;16.03;80.89;101889.03;5134497;28;19908;-40
2021/06/26 05:26:54;;;;;;;;;;;;;;;16.06;82.94;101890.47;5134239;27;20256;-40
2021/06/26 05:29:19;;;;;;;;;;;;;;;15.99;82.71;101890.59;5134328;28;19914;-40
2021/06/26 05:31:45;;;;;;;;;;;;;;;16.03;82.01;101886.31;5135635;27;19907;-40
2021/06/26 05:34:10;;;;;;;;;;;;;;;16.15;81.63;101895.31;5138142;27;20277;-40
2021/06/26 05:36:35;;;;;;;;;;;;;;;16.21;82.48;101896.22;5138184;27;20437;-40
2021/06/26 05:39:01;;;;;;;;;;;;;;;16.27;82.52;101894.44;5138037;27;20297;-40
2021/06/26 05:41:27;;;;;;;;;;;;;;;16.32;82.69;101897.25;5138599;27;20288;-40
2021/06/26 05:43:52;;;;;;;;;;;;;;;16.31;82.79;101893.69;5138015;27;19907;-40
2021/06/26 05:46:17;;;;;;;;;;;;;;;16.47;81.51;101892.91;5138809;27;19946;-40
2021/06/26 05:48:42;;;;;;;;;;;;;;;16.63;81.66;101904.09;5137804;27;20326;-40
2021/06/26 05:51:08;;;;;;;;;;;;;;;16.69;81.36;101903.13;5138271;27;20334;-40
2021/06/26 05:53:33;;;;;;;;;;;;;;;16.86;81.20;101897.72;5138068;27;20265;-40
2021/06/26 05:56:01;;;;;;;;;;;;;;;17.01;80.78;101897.97;5138056;27;19907;-40
2021/06/26 05:58:30;;;;;;;;;;;;;;;17.15;78.87;101893.00;5137948;27;19952;-40
2021/06/26 06:00:56;;;;;;;;;;;;;;;17.24;78.65;101896.97;5137681;27;20005;-40
2021/06/26 06:03:22;;;;;;;;;;;;;;;17.35;79.19;101900.66;5137277;27;19953;-40
2021/06/26 06:05:47;;;;;;;;;;;;;;;17.49;78.80;101901.97;5137547;27;19907;-40
2021/06/26 06:08:13;;;;;;;;;;;;;;;17.71;79.34;101897.38;5137477;27;20419;-40
2021/06/26 06:10:39;;;;;;;;;;;;;;;17.93;78.29;101896.59;5137964;27;19926;-45
2021/06/26 06:13:04;;;;;;;;;;;;;;;17.98;77.17;101892.00;5137668;27;20047;-40
2021/06/26 06:15:29;;;;;;;;;;;;;;;18.15;76.78;101897.38;5137091;27;19907;-41
2021/06/26 06:17:54;;;;;;;;;;;;;;;18.17;75.52;101886.19;5137317;27;19915;-40
2021/06/26 06:20:19;;;;;;;;;;;;;;;18.19;76.28;101887.56;5137006;27;19908;-41
2021/06/26 06:22:45;;;;;;;;;;;;;;;18.21;75.03;101885.44;5137141;27;19973;-41
2021/06/26 06:25:11;;;;;;;;;;;;;;;18.24;75.64;101901.31;5137786;27;19907;-41
2021/06/26 06:27:40;;;;;;;;;;;;;;;18.27;75.88;101895.34;5137123;27;20300;-41
2021/06/26 06:30:06;;;;;;;;;;;;;;;18.27;74.66;101894.53;5137864;27;19958;-39
2021/06/26 06:32:31;;;;;;;;;;;;;;;18.27;74.74;101897.25;5136917;27;19957;-40
2021/06/26 06:34:56;;;;;;;;;;;;;;;18.35;74.98;101901.44;5137832;27;19930;-41
2021/06/26 06:37:22;;;;;;;;;;;;;;;18.47;74.59;101893.91;5137424;27;20239;-41
2021/06/26 06:39:48;;;;;;;;;;;;;;;18.49;74.75;101895.28;5137220;27;19908;-41
2021/06/26 06:42:13;;;;;;;;;;;;;;;18.61;74.09;101897.88;5136780;27;20239;-41
2021/06/26 06:44:38;;;;;;;;;;;;;;;18.60;72.99;101898.97;5137422;27;19915;-40
2021/06/26 06:47:04;;;;;;;;;;;;;;;18.63;73.87;101903.09;5136709;27;20355;-40
2021/06/26 06:49:29;;;;;;;;;;;;;;;18.66;73.44;101903.41;5136456;27;20262;-41
2021/06/26 06:51:54;;;;;;;;;;;;;;;18.80;73.75;101908.50;5137563;27;19915;-41
2021/06/26 06:54:19;;;;;;;;;;;;;;;18.93;73.37;101908.06;5137149;27;19911;-40
2021/06/26 06:56:44;;;;;;;;;;;;;;;19.03;73.46;101898.03;5136576;27;19946;-40
2021/06/26 06:59:10;;;;;;;;;;;;;;;18.97;72.27;101895.47;5136985;27;19907;-40
2021/06/26 07:01:35;;;;;;;;;;;;;;;18.90;71.73;101908.59;5137054;27;19968;-40
2021/06/26 07:04:00;;;;;;;;;;;;;;;18.92;72.97;101899.00;5136124;27;19907;-40
2021/06/26 07:06:25;;;;;;;;;;;;;;;18.97;72.79;101907.28;5136604;27;19914;-40
2021/06/26 07:08:51;;;;;;;;;;;;;;;18.94;70.93;101898.75;5136241;27;19929;-40
2021/06/26 07:11:16;;;;;;;;;;;;;;;18.87;70.97;101903.63;5136791;27;19915;-40
2021/06/26 07:13:41;;;;;;;;;;;;;;;18.98;71.48;101903.47;5136209;27;19915;-40
2021/06/26 07:16:06;;;;;;;;;;;;;;;18.97;71.29;101888.09;5136469;27;19908;-40
2021/06/26 07:18:31;;;;;;;;;;;;;;;19.10;71.14;101903.28;5135806;27;19914;-40
2021/06/26 07:20:57;;;;;;;;;;;;;;;19.20;70.61;101894.28;5136593;27;19914;-40
2021/06/26 07:23:22;;;;;;;;;;;;;;;19.23;70.95;101894.59;5135976;27;19907;-40
2021/06/26 07:25:47;;;;;;;;;;;;;;;19.29;70.40;101889.97;5135935;27;19986;-40
2021/06/26 07:28:12;;;;;;;;;;;;;;;19.28;69.89;101891.91;5135893;27;19914;-40
2021/06/26 07:30:37;;;;;;;;;;;;;;;19.38;70.63;101893.06;5134621;27;20402;-40
2021/06/26 07:33:03;;;;;;;;;;;;;;;19.39;68.54;101887.28;5135761;27;20018;-40
2021/06/26 07:35:28;;;;;;;;;;;;;;;19.52;69.66;101894.22;5136365;27;19907;-40
2021/06/26 07:37:53;;;;;;;;;;;;;;;19.53;68.87;101895.88;5135392;27;19912;-40
2021/06/26 07:40:19;;;;;;;;;;;;;;;19.43;68.61;101899.41;5135930;27;20347;-40
2021/06/26 07:42:44;;;;;;;;;;;;;;;19.53;69.17;101895.88;5136282;27;19928;-41
2021/06/26 07:45:10;;;;;;;;;;;;;;;19.65;70.22;101896.53;5135931;27;19930;-40
2021/06/26 07:47:35;;;;;;;;;;;;;;;19.76;69.54;101892.75;5135560;27;19907;-40
2021/06/26 07:50:00;;;;;;;;;;;;;;;19.86;68.18;101896.63;5135575;27;20006;-40
2021/06/26 07:52:27;;;;;;;;;;;;;;;19.93;69.43;101894.47;5135203;27;19907;-40
2021/06/26 07:54:52;;;;;;;;;;;;;;;20.08;69.88;101900.00;5134881;27;19907;-40
2021/06/26 07:57:17;;;;;;;;;;;;;;;20.21;68.37;101884.97;5135066;27;19907;-40
2021/06/26 07:59:42;;;;;;;;;;;;;;;20.10;67.07;101888.75;5135363;27;20018;-40
2021/06/26 08:02:08;;;;;;;;;;;;;;;20.09;67.86;101887.94;5135681;27;19914;-40
2021/06/26 08:04:33;;;;;;;;;;;;;;;20.17;68.52;101884.66;5135611;27;20053;-40
2021/06/26 08:06:58;;;;;;;;;;;;;;;20.22;67.33;101883.84;5135307;27;20343;-40
2021/06/26 08:09:23;;;;;;;;;;;;;;;20.38;67.50;101885.53;5133653;27;19979;-40
2021/06/26 08:11:49;;;;;;;;;;;;;;;20.52;67.30;101883.13;5135271;27;20275;-40
2021/06/26 08:14:14;;;;;;;;;;;;;;;20.63;66.81;101881.22;5134677;27;19911;-40
2021/06/26 08:16:39;;;;;;;;;;;;;;;20.75;66.54;101885.34;5135396;27;19907;-40
2021/06/26 08:19:04;;;;;;;;;;;;;;;20.87;65.89;101878.75;5135137;27;19907;-41
2021/06/26 08:21:30;;;;;;;;;;;;;;;20.96;65.95;101888.09;5135474;27;19910;-40
2021/06/26 08:23:55;;;;;;;;;;;;;;;21.00;66.45;101884.53;5135049;27;19907;-40
2021/06/26 08:26:21;;;;;;;;;;;;;;;20.88;64.99;101875.72;5135379;27;19907;-46
2021/06/26 08:28:46;;;;;;;;;;;;;;;20.81;64.61;101876.00;5135359;28;19930;-40
2021/06/26 08:31:11;;;;;;;;;;;;;;;20.98;66.00;101877.63;5134675;28;19923;-40
2021/06/26 08:33:36;;;;;;;;;;;;;;;21.12;64.71;101878.72;5134990;27;19907;-40
2021/06/26 08:36:02;;;;;;;;;;;;;;;21.16;63.71;101879.00;5134963;28;19973;-40
2021/06/26 08:38:27;;;;;;;;;;;;;;;21.27;64.49;101878.69;5135566;27;19914;-40
2021/06/26 08:40:53;;;;;;;;;;;;;;;21.21;62.03;101876.25;5134926;28;19914;-41
2021/06/26 08:43:19;;;;;;;;;;;;;;;21.34;63.79;101882.03;5134872;27;19911;-41
2021/06/26 08:45:44;;;;;;;;;;;;;;;21.32;61.93;101880.66;5135212;27;19911;-40
2021/06/26 08:48:09;;;;;;;;;;;;;;;21.38;62.29;101887.00;5134586;28;19907;-40
2021/06/26 08:50:34;;;;;;;;;;;;;;;21.54;63.32;101888.59;5134904;28;19912;-40
2021/06/26 08:53:00;;;;;;;;;;;;;;;21.54;61.43;101883.91;5134791;27;19969;-40
2021/06/26 08:55:26;;;;;;;;;;;;;;;21.60;62.92;101882.78;5134744;28;19907;-40
2021/06/26 08:57:51;;;;;;;;;;;;;;;21.75;62.78;101883.84;5135304;27;19907;-40
2021/06/26 09:00:19;;;;;;;;;;;;;;;21.89;61.92;101878.56;5135072;27;19907;-40
2021/06/26 09:02:44;;;;;;;;;;;;;;;21.84;61.49;101885.72;5134977;27;19919;-40
2021/06/26 09:05:10;;;;;;;;;;;;;;;21.96;59.14;101874.41;5135081;28;19911;-40
2021/06/26 09:07:37;;;;;;;;;;;;;;;21.98;59.80;101879.63;5138041;27;19911;-40
2021/06/26 09:10:13;;;;;;;;;;;;;;;21.90;57.81;101880.19;5138594;27;20010;-40
2021/06/26 09:12:38;;;;;;;;;;;;;;;22.06;59.55;101881.78;5138877;27;19965;-40
2021/06/26 09:15:04;;;;;;;;;;;;;;;22.19;58.57;101880.38;5138664;27;19915;-40
2021/06/26 09:17:30;;;;;;;;;;;;;;;22.12;56.60;101880.69;5138221;27;19907;-40
2021/06/26 09:19:58;;;;;;;;;;;;;;;22.19;57.05;101883.94;5138717;27;19907;-40
2021/06/26 09:22:34;;;;;;;;;;;;;;;22.35;58.57;101885.53;5138170;27;19911;-40
2021/06/26 09:24:59;;;;;;;;;;;;;;;22.47;56.05;101882.41;5137438;27;19915;-41
2021/06/26 09:27:31;;;;;;;;;;;;;;;22.47;56.54;101881.56;5138710;27;19907;-41
2021/06/26 09:29:56;;;;;;;;;;;;;;;22.60;56.91;101881.75;5138478;27;19949;-41
2021/06/26 09:32:26;;;;;;;;;;;;;;;22.41;55.27;101891.81;5137917;27;20231;-41
2021/06/26 09:34:52;;;;;;;;;;;;;;;22.60;55.17;101884.53;5139138;27;19919;-41
2021/06/26 09:37:18;;;;;;;;;;;;;;;22.72;56.89;101884.13;5138164;27;20258;-41
2021/06/26 09:39:44;;;;;;;;;;;;;;;22.81;56.75;101885.19;5138201;27;19907;-41
2021/06/26 09:42:25;;;;;;;;;;;;;;;22.78;56.09;101888.50;5138687;27;19997;-41
2021/06/26 09:45:00;;;;;;;;;;;;;;;22.84;55.21;101884.63;5137783;27;20363;-41
2021/06/26 09:47:32;;;;;;;;;;;;;;;22.79;55.58;101881.91;5138634;27;19953;-41
2021/06/26 09:50:16;;;;;;;;;;;;;;;22.79;56.45;101881.03;5137582;27;19967;-41
2021/06/26 09:52:41;;;;;;;;;;;;;;;22.80;56.11;101872.50;5138126;27;19907;-41
2021/06/26 09:55:11;;;;;;;;;;;;;;;22.83;56.97;101884.88;5137719;27;19930;-41
2021/06/26 09:57:37;;;;;;;;;;;;;;;23.02;54.76;101868.47;5137617;27;20262;-41
2021/06/26 10:00:03;;;;;;;;;;;;;;;23.17;55.09;101873.84;5137518;27;19908;-41
2021/06/26 10:02:28;;;;;;;;;;;;;;;23.31;53.11;101877.56;5137381;27;19961;-41
2021/06/26 10:04:53;;;;;;;;;;;;;;;23.49;54.30;101877.94;5137390;27;19911;-41
2021/06/26 10:07:18;;;;;;;;;;;;;;;23.59;54.24;101886.94;5138281;27;20235;-41
2021/06/26 10:09:44;;;;;;;;;;;;;;;23.61;53.00;101887.44;5137687;27;19965;-41
2021/06/26 10:12:10;;;;;;;;;;;;;;;23.74;54.22;101876.84;5137653;27;20400;-41
2021/06/26 10:14:35;;;;;;;;;;;;;;;24.00;52.54;101886.44;5137673;27;19908;-41
2021/06/26 10:17:01;;;;;;;;;;;;;;;24.07;53.15;101884.16;5137832;27;19907;-41
2021/06/26 10:19:27;;;;;;;;;;;;;;;24.13;53.51;101888.50;5136803;27;19907;-41
2021/06/26 10:21:52;;;;;;;;;;;;;;;24.09;52.20;101881.91;5138142;27;19976;-41
2021/06/26 10:24:18;;;;;;;;;;;;;;;24.03;53.72;101880.34;5137461;27;19942;-41
2021/06/26 10:26:43;;;;;;;;;;;;;;;23.99;52.98;101876.53;5138094;27;19911;-41
2021/06/26 10:29:09;;;;;;;;;;;;;;;23.93;51.96;101871.38;5137383;27;19907;-41
2021/06/26 10:31:38;;;;;;;;;;;;;;;24.02;51.70;101872.34;5136985;27;19984;-41
2021/06/26 10:34:07;;;;;;;;;;;;;;;24.00;52.38;101864.34;5137628;27;19964;-41
2021/06/26 10:36:32;;;;;;;;;;;;;;;24.12;51.73;101864.75;5136972;27;19907;-41
2021/06/26 10:38:57;;;;;;;;;;;;;;;24.30;52.91;101865.03;5137173;27;19914;-41
2021/06/26 10:41:23;;;;;;;;;;;;;;;24.14;50.38;101856.16;5137500;27;19911;-41
2021/06/26 10:43:55;;;;;;;;;;;;;;;24.20;50.53;101866.00;5136753;27;20243;-41
2021/06/26 10:46:21;;;;;;;;;;;;;;;24.36;49.00;101866.66;5136819;27;20365;-40
2021/06/26 10:49:03;;;;;;;;;;;;;;;24.53;47.47;101860.56;5136600;27;19998;-40
2021/06/26 10:51:35;;;;;;;;;;;;;;;24.53;48.70;101860.56;5136957;27;19958;-40
2021/06/26 10:54:13;;;;;;;;;;;;;;;24.43;49.93;101861.56;5136432;27;19907;-40
2021/06/26 10:56:39;;;;;;;;;;;;;;;24.35;51.09;101868.56;5136226;27;19907;-40
2021/06/26 10:59:11;;;;;;;;;;;;;;;24.31;51.60;101866.69;5136682;27;20014;-40
2021/06/26 11:01:37;;;;;;;;;;;;;;;24.02;49.10;101862.13;5136756;27;19914;-40
2021/06/26 11:04:06;;;;;;;;;;;;;;;23.83;50.54;101864.84;5136106;27;19907;-41
2021/06/26 11:06:32;;;;;;;;;;;;;;;23.92;52.05;101866.97;5136439;27;19911;-41
2021/06/26 11:08:57;;;;;;;;;;;;;;;24.15;51.33;101863.31;5134985;27;20266;-41
2021/06/26 11:11:30;;;;;;;;;;;;;;;24.31;50.34;101859.22;5136166;27;19907;-41
2021/06/26 11:14:12;;;;;;;;;;;;;;;24.44;48.71;101863.19;5136110;27;19928;-41
2021/06/26 11:16:39;;;;;;;;;;;;;;;24.59;49.62;101862.13;5136171;27;19907;-41
2021/06/26 11:19:04;;;;;;;;;;;;;;;24.67;49.98;101862.28;5136080;27;19918;-41
2021/06/26 11:21:36;;;;;;;;;;;;;;;24.66;48.12;101862.59;5135838;27;20263;-41
2021/06/26 11:24:01;;;;;;;;;;;;;;;24.60;49.20;101852.72;5136424;27;19961;-41
2021/06/26 11:26:27;;;;;;;;;;;;;;;24.64;49.44;101857.38;5136281;27;20338;-41
2021/06/26 11:28:52;;;;;;;;;;;;;;;24.67;46.68;101864.22;5135292;27;19929;-41
2021/06/26 11:31:17;;;;;;;;;;;;;;;24.82;48.77;101861.19;5135613;27;19907;-41
2021/06/26 11:33:42;;;;;;;;;;;;;;;25.15;48.08;101852.91;5135567;27;19914;-41
2021/06/26 11:36:12;;;;;;;;;;;;;;;25.52;49.05;101854.66;5136106;27;19911;-41
2021/06/26 11:38:37;;;;;;;;;;;;;;;25.85;46.13;101847.09;5136051;27;19907;-41
2021/06/26 11:41:07;;;;;;;;;;;;;;;25.95;46.44;101851.59;5135450;27;19930;-41
2021/06/26 11:43:33;;;;;;;;;;;;;;;26.14;47.09;101845.91;5135881;27;19914;-41
2021/06/26 11:46:00;;;;;;;;;;;;;;;26.24;43.51;101851.22;5136499;27;19950;-41
2021/06/26 11:48:25;;;;;;;;;;;;;;;26.05;45.77;101842.22;5135537;27;20343;-41
2021/06/26 11:51:02;;;;;;;;;;;;;;;25.80;42.32;101838.88;5135874;27;19912;-41
2021/06/26 11:53:28;;;;;;;;;;;;;;;25.57;45.13;101846.28;5136379;27;19911;-41
2021/06/26 11:56:04;;;;;;;;;;;;;;;25.75;45.67;101852.84;5135519;27;20395;-41
2021/06/26 11:58:35;;;;;;;;;;;;;;;26.05;43.04;101845.00;5135072;27;20358;-41
2021/06/26 12:01:01;;;;;;;;;;;;;;;25.93;41.56;101842.78;5135641;27;20001;-41
2021/06/26 12:03:28;;;;;;;;;;;;;;;25.60;41.72;101844.81;5135716;27;19907;-41
2021/06/26 12:05:58;;;;;;;;;;;;;;;25.66;43.40;101846.34;5135264;27;19907;-41
2021/06/26 12:08:24;;;;;;;;;;;;;;;25.66;41.59;101843.59;5135019;27;20403;-41
2021/06/26 12:10:50;;;;;;;;;;;;;;;25.92;45.07;101844.72;5135724;27;20014;-41
2021/06/26 12:13:15;;;;;;;;;;;;;;;25.67;42.87;101850.78;5135071;27;19930;-41
2021/06/26 12:15:42;;;;;;;;;;;;;;;25.80;43.44;101838.88;5135641;27;19907;-41
2021/06/26 12:18:07;;;;;;;;;;;;;;;26.12;45.47;101837.91;5135091;27;19908;-41
2021/06/26 12:20:36;;;;;;;;;;;;;;;26.23;42.51;101841.25;5135078;27;19914;-41
2021/06/26 12:23:02;;;;;;;;;;;;;;;26.48;40.54;101836.25;5134968;27;20396;-41
2021/06/26 12:25:33;;;;;;;;;;;;;;;26.74;42.58;101834.47;5135842;27;19935;-41
2021/06/26 12:27:59;;;;;;;;;;;;;;;26.99;42.87;101835.78;5135255;27;19952;-41
2021/06/26 12:30:25;;;;;;;;;;;;;;;27.26;42.22;101828.44;5134850;27;19917;-41